sensor_id;sensor_type;location;lat;lon;timestamp;pressure;altitude;pressure_sealevel;temperature;humidity
34931;BME280;21134;49.646;8.560;2023-04-20T00:01:02;100584.41;;;4.08;74.77
34931;BME280;21134;49.646;8.560;2023-04-20T00:03:29;100580.09;;;4.04;75.46
34931;BME280;21134;49.646;8.560;2023-04-20T00:05:57;100577.66;;;4.08;74.70
34931;BME280;21134;49.646;8.560;2023-04-20T00:08:27;100573.53;;;4.10;75.23
34931;BME280;21134;49.646;8.560;2023-04-20T00:10:53;100574.38;;;4.11;75.14
34931;BME280;21134;49.646;8.560;2023-04-20T00:13:20;100560.03;;;4.11;75.00
34931;BME280;21134;49.646;8.560;2023-04-20T00:15:46;100566.78;;;4.11;75.02
34931;BME280;21134;49.646;8.560;2023-04-20T00:18:13;100565.72;;;4.03;74.75
34931;BME280;21134;49.646;8.560;2023-04-20T00:20:39;100561.34;;;3.97;75.47
34931;BME280;21134;49.646;8.560;2023-04-20T00:23:06;100550.22;;;3.90;76.45
34931;BME280;21134;49.646;8.560;2023-04-20T00:25:34;100550.22;;;3.90;76.14
34931;BME280;21134;49.646;8.560;2023-04-20T00:28:00;100546.69;;;3.85;76.61
34931;BME280;21134;49.646;8.560;2023-04-20T00:30:27;100540.78;;;3.85;75.60
34931;BME280;21134;49.646;8.560;2023-04-20T00:32:53;100544.91;;;3.81;76.36
34931;BME280;21134;49.646;8.560;2023-04-20T00:35:20;100538.97;;;3.81;76.92
34931;BME280;21134;49.646;8.560;2023-04-20T00:37:46;100537.03;;;3.70;77.36
34931;BME280;21134;49.646;8.560;2023-04-20T00:40:13;100531.97;;;3.70;76.98
34931;BME280;21134;49.646;8.560;2023-04-20T00:42:41;100533.41;;;3.62;77.39
34931;BME280;21134;49.646;8.560;2023-04-20T00:45:08;100524.31;;;3.69;76.86
34931;BME280;21134;49.646;8.560;2023-04-20T00:47:35;100522.81;;;3.76;76.92
34931;BME280;21134;49.646;8.560;2023-04-20T00:50:01;100523.81;;;3.82;76.42
34931;BME280;21134;49.646;8.560;2023-04-20T00:52:29;100521.34;;;3.84;76.14
34931;BME280;21134;49.646;8.560;2023-04-20T00:54:55;100520.16;;;3.71;78.20
34931;BME280;21134;49.646;8.560;2023-04-20T00:57:22;100514.25;;;3.70;78.64
34931;BME280;21134;49.646;8.560;2023-04-20T00:59:50;100514.34;;;3.73;78.29
34931;BME280;21134;49.646;8.560;2023-04-20T01:02:16;100508.38;;;3.71;78.20
34931;BME280;21134;49.646;8.560;2023-04-20T01:04:43;100496.41;;;3.66;79.22
34931;BME280;21134;49.646;8.560;2023-04-20T01:07:10;100497.25;;;3.66;78.88
34931;BME280;21134;49.646;8.560;2023-04-20T01:09:37;100497.31;;;3.68;79.26
34931;BME280;21134;49.646;8.560;2023-04-20T01:12:04;100490.38;;;3.61;78.57
34931;BME280;21134;49.646;8.560;2023-04-20T01:14:31;100495.28;;;3.55;79.40
34931;BME280;21134;49.646;8.560;2023-04-20T01:16:58;100486.75;;;3.51;78.88
34931;BME280;21134;49.646;8.560;2023-04-20T01:19:25;100489.94;;;3.45;79.91
34931;BME280;21134;49.646;8.560;2023-04-20T01:21:51;100487.25;;;3.39;80.38
34931;BME280;21134;49.646;8.560;2023-04-20T01:24:19;100484.56;;;3.33;79.93
34931;BME280;21134;49.646;8.560;2023-04-20T01:26:46;100477.91;;;3.37;80.08
34931;BME280;21134;49.646;8.560;2023-04-20T01:29:12;100475.44;;;3.38;80.45
34931;BME280;21134;49.646;8.560;2023-04-20T01:31:39;100474.53;;;3.36;80.41
34931;BME280;21134;49.646;8.560;2023-04-20T01:34:05;100470.50;;;3.44;80.27
34931;BME280;21134;49.646;8.560;2023-04-20T01:36:32;100462.94;;;3.44;79.89
34931;BME280;21134;49.646;8.560;2023-04-20T01:38:59;100456.13;;;3.42;80.97
34931;BME280;21134;49.646;8.560;2023-04-20T01:41:26;100460.38;;;3.43;81.01
34931;BME280;21134;49.646;8.560;2023-04-20T01:43:53;100455.47;;;3.49;80.81
34931;BME280;21134;49.646;8.560;2023-04-20T01:46:19;100448.84;;;3.54;79.52
34931;BME280;21134;49.646;8.560;2023-04-20T01:48:46;100450.69;;;3.60;79.59
34931;BME280;21134;49.646;8.560;2023-04-20T01:51:12;100443.09;;;3.60;80.82
34931;BME280;21134;49.646;8.560;2023-04-20T01:53:39;100440.31;;;3.49;81.29
34931;BME280;21134;49.646;8.560;2023-04-20T01:56:05;100441.84;;;3.44;81.70
34931;BME280;21134;49.646;8.560;2023-04-20T01:58:33;100438.34;;;3.39;81.28
34931;BME280;21134;49.646;8.560;2023-04-20T02:01:00;100438.25;;;3.36;81.28
34931;BME280;21134;49.646;8.560;2023-04-20T02:03:27;100439.22;;;3.41;80.59
34931;BME280;21134;49.646;8.560;2023-04-20T02:05:53;100440.03;;;3.38;81.13
34931;BME280;21134;49.646;8.560;2023-04-20T02:08:20;100438.94;;;3.30;81.18
34931;BME280;21134;49.646;8.560;2023-04-20T02:10:46;100433.97;;;3.33;81.87
34931;BME280;21134;49.646;8.560;2023-04-20T02:13:13;100440.97;;;3.42;79.94
34931;BME280;21134;49.646;8.560;2023-04-20T02:15:40;100427.81;;;3.55;79.08
34931;BME280;21134;49.646;8.560;2023-04-20T02:18:07;100431.22;;;3.57;80.01
34931;BME280;21134;49.646;8.560;2023-04-20T02:20:33;100431.22;;;3.57;80.38
34931;BME280;21134;49.646;8.560;2023-04-20T02:23:00;100429.59;;;3.58;81.15
34931;BME280;21134;49.646;8.560;2023-04-20T02:25:26;100424.47;;;3.56;80.93
34931;BME280;21134;49.646;8.560;2023-04-20T02:27:53;100425.63;;;3.69;80.69
34931;BME280;21134;49.646;8.560;2023-04-20T02:30:20;100430.59;;;3.64;80.76
34931;BME280;21134;49.646;8.560;2023-04-20T02:32:48;100421.31;;;3.65;81.21
34931;BME280;21134;49.646;8.560;2023-04-20T02:35:14;100417.78;;;3.58;80.84
34931;BME280;21134;49.646;8.560;2023-04-20T02:37:42;100423.53;;;3.53;81.62
34931;BME280;21134;49.646;8.560;2023-04-20T02:40:09;100420.00;;;3.46;81.81
34931;BME280;21134;49.646;8.560;2023-04-20T02:42:35;100411.56;;;3.47;81.57
34931;BME280;21134;49.646;8.560;2023-04-20T02:45:02;100418.38;;;3.48;81.68
34931;BME280;21134;49.646;8.560;2023-04-20T02:47:29;100410.81;;;3.49;81.81
34931;BME280;21134;49.646;8.560;2023-04-20T02:49:57;100411.78;;;3.55;82.04
34931;BME280;21134;49.646;8.560;2023-04-20T02:52:24;100407.63;;;3.57;81.32
34931;BME280;21134;49.646;8.560;2023-04-20T02:54:51;100403.22;;;3.49;81.87
34931;BME280;21134;49.646;8.560;2023-04-20T02:57:17;100400.59;;;3.45;82.26
34931;BME280;21134;49.646;8.560;2023-04-20T02:59:43;100397.88;;;3.39;82.62
34931;BME280;21134;49.646;8.560;2023-04-20T03:02:10;100402.81;;;3.34;82.51
34931;BME280;21134;49.646;8.560;2023-04-20T03:04:36;100396.88;;;3.32;82.84
34931;BME280;21134;49.646;8.560;2023-04-20T03:07:05;100388.22;;;3.24;83.15
34931;BME280;21134;49.646;8.560;2023-04-20T03:09:32;100395.38;;;3.09;83.75
34931;BME280;21134;49.646;8.560;2023-04-20T03:11:58;100393.00;;;3.13;84.14
34931;BME280;21134;49.646;8.560;2023-04-20T03:14:26;100384.41;;;3.08;83.77
34931;BME280;21134;49.646;8.560;2023-04-20T03:16:53;100386.00;;;3.05;83.73
34931;BME280;21134;49.646;8.560;2023-04-20T03:19:19;100388.44;;;3.01;83.02
34931;BME280;21134;49.646;8.560;2023-04-20T03:21:46;100377.47;;;3.01;83.42
34931;BME280;21134;49.646;8.560;2023-04-20T03:24:17;100375.69;;;2.97;83.76
34931;BME280;21134;49.646;8.560;2023-04-20T03:26:43;100372.09;;;2.90;83.66
34931;BME280;21134;49.646;8.560;2023-04-20T03:29:10;100374.78;;;2.95;83.85
34931;BME280;21134;49.646;8.560;2023-04-20T03:31:36;100374.72;;;2.93;83.66
34931;BME280;21134;49.646;8.560;2023-04-20T03:34:03;100379.53;;;2.84;84.32
34931;BME280;21134;49.646;8.560;2023-04-20T03:36:29;100375.81;;;2.71;84.69
34931;BME280;21134;49.646;8.560;2023-04-20T03:38:56;100370.75;;;2.71;84.41
34931;BME280;21134;49.646;8.560;2023-04-20T03:41:24;100375.63;;;2.65;84.74
34931;BME280;21134;49.646;8.560;2023-04-20T03:43:51;100369.63;;;2.62;85.02
34931;BME280;21134;49.646;8.560;2023-04-20T03:46:17;100371.91;;;2.54;85.08
34931;BME280;21134;49.646;8.560;2023-04-20T03:48:44;100375.13;;;2.48;84.54
34931;BME280;21134;49.646;8.560;2023-04-20T03:51:10;100375.84;;;2.44;84.24
34931;BME280;21134;49.646;8.560;2023-04-20T03:53:37;100373.97;;;2.37;84.28
34931;BME280;21134;49.646;8.560;2023-04-20T03:56:04;100366.09;;;2.28;84.62
34931;BME280;21134;49.646;8.560;2023-04-20T03:58:31;100375.28;;;2.26;85.38
34931;BME280;21134;49.646;8.560;2023-04-20T04:01:02;100365.16;;;2.24;85.19
34931;BME280;21134;49.646;8.560;2023-04-20T04:03:31;100364.41;;;2.27;85.27
34931;BME280;21134;49.646;8.560;2023-04-20T04:05:58;100363.50;;;2.26;85.34
34931;BME280;21134;49.646;8.560;2023-04-20T04:08:24;100357.50;;;2.21;86.08
34931;BME280;21134;49.646;8.560;2023-04-20T04:10:51;100358.53;;;2.28;85.74
34931;BME280;21134;49.646;8.560;2023-04-20T04:13:17;100357.03;;;2.35;86.26
34931;BME280;21134;49.646;8.560;2023-04-20T04:15:45;100358.72;;;2.34;85.90
34931;BME280;21134;49.646;8.560;2023-04-20T04:18:11;100364.41;;;2.27;86.46
34931;BME280;21134;49.646;8.560;2023-04-20T04:20:38;100360.13;;;2.26;86.85
34931;BME280;21134;49.646;8.560;2023-04-20T04:23:04;100365.34;;;2.30;86.50
34931;BME280;21134;49.646;8.560;2023-04-20T04:25:31;100361.25;;;2.34;86.45
34931;BME280;21134;49.646;8.560;2023-04-20T04:27:58;100364.91;;;2.44;85.92
34931;BME280;21134;49.646;8.560;2023-04-20T04:30:24;100359.78;;;2.42;86.80
34931;BME280;21134;49.646;8.560;2023-04-20T04:32:53;100359.88;;;2.45;86.38
34931;BME280;21134;49.646;8.560;2023-04-20T04:35:19;100361.78;;;2.52;86.38
34931;BME280;21134;49.646;8.560;2023-04-20T04:37:46;100362.84;;;2.61;86.16
34931;BME280;21134;49.646;8.560;2023-04-20T04:40:12;100359.75;;;2.69;86.16
34931;BME280;21134;49.646;8.560;2023-04-20T04:42:39;100353.31;;;2.80;85.51
34931;BME280;21134;49.646;8.560;2023-04-20T04:45:06;100364.63;;;2.93;85.07
34931;BME280;21134;49.646;8.560;2023-04-20T04:47:34;100366.06;;;3.15;85.09
34931;BME280;21134;49.646;8.560;2023-04-20T04:50:02;100361.47;;;3.32;84.13
34931;BME280;21134;49.646;8.560;2023-04-20T04:52:30;100363.91;;;3.62;82.89
34931;BME280;21134;49.646;8.560;2023-04-20T04:54:57;100361.72;;;3.76;81.25
34931;BME280;21134;49.646;8.560;2023-04-20T04:57:23;100352.66;;;3.84;80.98
34931;BME280;21134;49.646;8.560;2023-04-20T04:59:50;100352.09;;;3.96;79.91
34931;BME280;21134;49.646;8.560;2023-04-20T05:02:16;100363.66;;;4.23;79.18
34931;BME280;21134;49.646;8.560;2023-04-20T05:04:43;100362.16;;;4.31;78.51
34931;BME280;21134;49.646;8.560;2023-04-20T05:07:10;100364.94;;;4.41;77.90
34931;BME280;21134;49.646;8.560;2023-04-20T05:09:38;100361.75;;;4.52;77.68
34931;BME280;21134;49.646;8.560;2023-04-20T05:12:05;100363.91;;;4.73;76.92
34931;BME280;21134;49.646;8.560;2023-04-20T05:14:32;100359.94;;;4.87;75.64
34931;BME280;21134;49.646;8.560;2023-04-20T05:16:59;100360.91;;;4.92;76.14
34931;BME280;21134;49.646;8.560;2023-04-20T05:19:26;100361.22;;;5.07;75.61
34931;BME280;21134;49.646;8.560;2023-04-20T05:21:52;100360.63;;;5.22;74.96
34931;BME280;21134;49.646;8.560;2023-04-20T05:24:20;100369.94;;;5.22;75.43
34931;BME280;21134;49.646;8.560;2023-04-20T05:26:47;100367.44;;;5.25;75.53
34931;BME280;21134;49.646;8.560;2023-04-20T05:29:14;100359.91;;;5.29;75.54
34931;BME280;21134;49.646;8.560;2023-04-20T05:31:41;100369.66;;;5.53;74.05
34931;BME280;21134;49.646;8.560;2023-04-20T05:34:07;100353.41;;;5.44;74.36
34931;BME280;21134;49.646;8.560;2023-04-20T05:36:34;100361.31;;;5.60;74.20
34931;BME280;21134;49.646;8.560;2023-04-20T05:39:01;100362.19;;;5.63;74.61
34931;BME280;21134;49.646;8.560;2023-04-20T05:41:29;100359.75;;;5.69;73.83
34931;BME280;21134;49.646;8.560;2023-04-20T05:43:55;100364.06;;;5.73;74.34
34931;BME280;21134;49.646;8.560;2023-04-20T05:46:22;100362.38;;;5.73;74.08
34931;BME280;21134;49.646;8.560;2023-04-20T05:48:49;100367.59;;;5.81;74.62
34931;BME280;21134;49.646;8.560;2023-04-20T05:51:15;100353.25;;;5.86;74.16
34931;BME280;21134;49.646;8.560;2023-04-20T05:53:41;100364.28;;;5.87;74.75
34931;BME280;21134;49.646;8.560;2023-04-20T05:56:08;100359.97;;;5.82;74.80
34931;BME280;21134;49.646;8.560;2023-04-20T05:58:36;100353.47;;;5.97;74.72
34931;BME280;21134;49.646;8.560;2023-04-20T06:01:02;100349.97;;;5.92;75.52
34931;BME280;21134;49.646;8.560;2023-04-20T06:03:29;100359.13;;;5.83;75.60
34931;BME280;21134;49.646;8.560;2023-04-20T06:05:56;100357.78;;;6.02;75.34
34931;BME280;21134;49.646;8.560;2023-04-20T06:08:22;100354.19;;;5.91;75.85
34931;BME280;21134;49.646;8.560;2023-04-20T06:10:52;100359.41;;;5.99;75.66
34931;BME280;21134;49.646;8.560;2023-04-20T06:13:19;100346.97;;;6.14;75.31
34931;BME280;21134;49.646;8.560;2023-04-20T06:15:46;100352.19;;;6.25;74.49
34931;BME280;21134;49.646;8.560;2023-04-20T06:18:13;100354.91;;;6.37;73.84
34931;BME280;21134;49.646;8.560;2023-04-20T06:20:39;100351.34;;;6.24;74.48
34931;BME280;21134;49.646;8.560;2023-04-20T06:23:08;100351.41;;;6.29;74.23
34931;BME280;21134;49.646;8.560;2023-04-20T06:25:34;100346.38;;;6.34;73.81
34931;BME280;21134;49.646;8.560;2023-04-20T06:28:01;100354.84;;;6.34;73.97
34931;BME280;21134;49.646;8.560;2023-04-20T06:30:27;100365.88;;;6.35;74.46
34931;BME280;21134;49.646;8.560;2023-04-20T06:32:56;100381.25;;;6.44;74.60
34931;BME280;21134;49.646;8.560;2023-04-20T06:35:22;100382.34;;;6.61;73.48
34931;BME280;21134;49.646;8.560;2023-04-20T06:37:49;100374.09;;;6.79;73.30
34931;BME280;21134;49.646;8.560;2023-04-20T06:40:15;100377.63;;;6.90;73.51
34931;BME280;21134;49.646;8.560;2023-04-20T06:42:43;100366.81;;;7.10;72.45
34931;BME280;21134;49.646;8.560;2023-04-20T06:45:10;100366.09;;;7.18;71.58
34931;BME280;21134;49.646;8.560;2023-04-20T06:47:36;100368.78;;;7.37;72.06
34931;BME280;21134;49.646;8.560;2023-04-20T06:50:06;100366.41;;;7.51;70.68
34931;BME280;21134;49.646;8.560;2023-04-20T06:52:33;100368.13;;;7.53;70.00
34931;BME280;21134;49.646;8.560;2023-04-20T06:55:00;100365.66;;;7.65;69.50
34931;BME280;21134;49.646;8.560;2023-04-20T06:57:27;100370.00;;;7.74;68.62
34931;BME280;21134;49.646;8.560;2023-04-20T06:59:53;100359.94;;;7.91;69.05
34931;BME280;21134;49.646;8.560;2023-04-20T07:02:20;100362.53;;;7.96;68.96
34931;BME280;21134;49.646;8.560;2023-04-20T07:04:46;100354.88;;;7.92;67.92
34931;BME280;21134;49.646;8.560;2023-04-20T07:07:14;100358.31;;;7.99;68.55
34931;BME280;21134;49.646;8.560;2023-04-20T07:09:41;100353.25;;;8.07;68.64
34931;BME280;21134;49.646;8.560;2023-04-20T07:12:08;100358.50;;;8.27;67.82
34931;BME280;21134;49.646;8.560;2023-04-20T07:14:35;100353.41;;;8.24;67.42
34931;BME280;21134;49.646;8.560;2023-04-20T07:17:02;100356.97;;;8.53;66.92
34931;BME280;21134;49.646;8.560;2023-04-20T07:19:28;100355.38;;;8.72;66.71
34931;BME280;21134;49.646;8.560;2023-04-20T07:21:55;100354.59;;;8.95;64.87
34931;BME280;21134;49.646;8.560;2023-04-20T07:24:22;100351.09;;;8.70;64.48
34931;BME280;21134;49.646;8.560;2023-04-20T07:26:49;100359.66;;;8.82;64.15
34931;BME280;21134;49.646;8.560;2023-04-20T07:29:16;100352.84;;;8.83;64.94
34931;BME280;21134;49.646;8.560;2023-04-20T07:31:42;100358.84;;;8.96;64.17
34931;BME280;21134;49.646;8.560;2023-04-20T07:34:08;100361.22;;;8.54;65.35
34931;BME280;21134;49.646;8.560;2023-04-20T07:36:36;100361.97;;;8.36;66.34
34931;BME280;21134;49.646;8.560;2023-04-20T07:39:03;100352.75;;;8.55;66.81
34931;BME280;21134;49.646;8.560;2023-04-20T07:41:31;100355.47;;;8.91;64.19
34931;BME280;21134;49.646;8.560;2023-04-20T07:43:58;100355.50;;;9.09;63.99
34931;BME280;21134;49.646;8.560;2023-04-20T07:46:24;100352.09;;;9.04;63.51
34931;BME280;21134;49.646;8.560;2023-04-20T07:48:52;100352.03;;;8.92;64.65
34931;BME280;21134;49.646;8.560;2023-04-20T07:51:19;100349.50;;;8.95;65.43
34931;BME280;21134;49.646;8.560;2023-04-20T07:53:45;100339.38;;;9.24;63.90
34931;BME280;21134;49.646;8.560;2023-04-20T07:56:12;100350.47;;;9.35;63.45
34931;BME280;21134;49.646;8.560;2023-04-20T07:58:39;100347.88;;;9.23;63.09
34931;BME280;21134;49.646;8.560;2023-04-20T08:01:06;100346.91;;;8.82;65.59
34931;BME280;21134;49.646;8.560;2023-04-20T08:03:32;100340.94;;;8.71;65.81
34931;BME280;21134;49.646;8.560;2023-04-20T08:06:00;100337.47;;;8.55;65.88
34931;BME280;21134;49.646;8.560;2023-04-20T08:08:26;100342.56;;;8.60;65.43
34931;BME280;21134;49.646;8.560;2023-04-20T08:10:55;100333.22;;;8.60;65.98
34931;BME280;21134;49.646;8.560;2023-04-20T08:13:21;100335.81;;;8.77;66.57
34931;BME280;21134;49.646;8.560;2023-04-20T08:15:49;100338.47;;;8.97;65.89
34931;BME280;21134;49.646;8.560;2023-04-20T08:18:16;100331.69;;;9.07;66.00
34931;BME280;21134;49.646;8.560;2023-04-20T08:20:42;100322.41;;;9.41;64.92
34931;BME280;21134;49.646;8.560;2023-04-20T08:23:10;100318.97;;;9.71;62.88
34931;BME280;21134;49.646;8.560;2023-04-20T08:25:37;100324.91;;;10.12;62.65
34931;BME280;21134;49.646;8.560;2023-04-20T08:28:04;100331.63;;;10.57;60.87
34931;BME280;21134;49.646;8.560;2023-04-20T08:30:30;100323.06;;;10.72;60.05
34931;BME280;21134;49.646;8.560;2023-04-20T08:32:58;100317.16;;;10.56;59.45
34931;BME280;21134;49.646;8.560;2023-04-20T08:35:25;100319.69;;;10.61;59.38
34931;BME280;21134;49.646;8.560;2023-04-20T08:37:51;100311.09;;;10.73;58.33
34931;BME280;21134;49.646;8.560;2023-04-20T08:40:18;100317.88;;;10.78;59.26
34931;BME280;21134;49.646;8.560;2023-04-20T08:42:45;100317.75;;;11.03;58.64
34931;BME280;21134;49.646;8.560;2023-04-20T08:45:11;100317.66;;;11.16;58.62
34931;BME280;21134;49.646;8.560;2023-04-20T08:47:39;100307.44;;;11.16;58.93
34931;BME280;21134;49.646;8.560;2023-04-20T08:50:09;100311.47;;;11.51;58.46
34931;BME280;21134;49.646;8.560;2023-04-20T08:52:36;100310.38;;;11.81;56.93
34931;BME280;21134;49.646;8.560;2023-04-20T08:55:05;100305.41;;;11.60;57.02
34931;BME280;21134;49.646;8.560;2023-04-20T08:57:32;100308.97;;;11.42;56.98
34931;BME280;21134;49.646;8.560;2023-04-20T08:59:58;100301.88;;;11.75;57.39
34931;BME280;21134;49.646;8.560;2023-04-20T09:02:25;100306.06;;;11.86;56.73
34931;BME280;21134;49.646;8.560;2023-04-20T09:05:00;100296.84;;;11.66;56.01
34931;BME280;21134;49.646;8.560;2023-04-20T09:07:27;100296.03;;;11.59;57.84
34931;BME280;21134;49.646;8.560;2023-04-20T09:09:54;100294.19;;;11.73;57.42
34931;BME280;21134;49.646;8.560;2023-04-20T09:12:21;100292.41;;;11.80;56.98
34931;BME280;21134;49.646;8.560;2023-04-20T09:14:49;100290.00;;;11.66;57.32
34931;BME280;21134;49.646;8.560;2023-04-20T09:17:16;100292.00;;;11.26;59.15
34931;BME280;21134;49.646;8.560;2023-04-20T09:19:44;100287.00;;;11.12;59.36
34931;BME280;21134;49.646;8.560;2023-04-20T09:22:11;100285.19;;;11.25;59.29
34931;BME280;21134;49.646;8.560;2023-04-20T09:24:39;100278.09;;;11.57;57.91
34931;BME280;21134;49.646;8.560;2023-04-20T09:27:14;100272.63;;;12.00;57.03
34931;BME280;21134;49.646;8.560;2023-04-20T09:29:41;100261.22;;;12.24;55.77
34931;BME280;21134;49.646;8.560;2023-04-20T09:32:07;100264.84;;;12.08;56.29
34931;BME280;21134;49.646;8.560;2023-04-20T09:34:41;100260.69;;;11.93;56.73
34931;BME280;21134;49.646;8.560;2023-04-20T09:37:08;100260.84;;;11.76;56.41
34931;BME280;21134;49.646;8.560;2023-04-20T09:39:36;100261.03;;;11.55;57.18
34931;BME280;21134;49.646;8.560;2023-04-20T09:42:11;100256.72;;;11.61;57.97
34931;BME280;21134;49.646;8.560;2023-04-20T09:44:38;100248.94;;;11.72;57.58
34931;BME280;21134;49.646;8.560;2023-04-20T09:47:05;100244.28;;;12.11;56.84
34931;BME280;21134;49.646;8.560;2023-04-20T09:49:32;100241.47;;;12.32;55.78
34931;BME280;21134;49.646;8.560;2023-04-20T09:52:00;100236.56;;;12.14;55.45
34931;BME280;21134;49.646;8.560;2023-04-20T09:54:27;100231.63;;;11.97;56.15
34931;BME280;21134;49.646;8.560;2023-04-20T09:56:55;100229.19;;;11.80;55.73
34931;BME280;21134;49.646;8.560;2023-04-20T09:59:25;100236.13;;;11.72;57.04
34931;BME280;21134;49.646;8.560;2023-04-20T10:01:52;100230.16;;;11.72;55.95
34931;BME280;21134;49.646;8.560;2023-04-20T10:04:19;100232.38;;;12.07;54.89
34931;BME280;21134;49.646;8.560;2023-04-20T10:06:52;100219.34;;;12.86;54.06
34931;BME280;21134;49.646;8.560;2023-04-20T10:09:21;100215.06;;;13.42;52.16
34931;BME280;21134;49.646;8.560;2023-04-20T10:11:48;100212.59;;;13.85;50.28
34931;BME280;21134;49.646;8.560;2023-04-20T10:14:16;100210.41;;;14.10;49.85
34931;BME280;21134;49.646;8.560;2023-04-20T10:16:45;100202.63;;;14.54;49.43
34931;BME280;21134;49.646;8.560;2023-04-20T10:19:12;100209.06;;;14.73;47.36
34931;BME280;21134;49.646;8.560;2023-04-20T10:21:46;100196.03;;;14.40;47.58
34931;BME280;21134;49.646;8.560;2023-04-20T10:24:13;100195.94;;;14.03;47.84
34931;BME280;21134;49.646;8.560;2023-04-20T10:26:42;100193.41;;;13.57;48.41
34931;BME280;21134;49.646;8.560;2023-04-20T10:29:10;100187.81;;;13.33;48.64
34931;BME280;21134;49.646;8.560;2023-04-20T10:31:37;100186.25;;;13.24;50.22
34931;BME280;21134;49.646;8.560;2023-04-20T10:34:06;100193.53;;;12.95;51.67
34931;BME280;21134;49.646;8.560;2023-04-20T10:36:34;100214.06;;;12.95;55.02
34931;BME280;21134;49.646;8.560;2023-04-20T10:39:13;100188.09;;;12.59;58.77
34931;BME280;21134;49.646;8.560;2023-04-20T10:41:51;100186.13;;;12.76;58.62
34931;BME280;21134;49.646;8.560;2023-04-20T10:44:18;100187.34;;;13.08;54.19
34931;BME280;21134;49.646;8.560;2023-04-20T10:46:47;100182.66;;;13.35;57.20
34931;BME280;21134;49.646;8.560;2023-04-20T10:49:16;100178.16;;;13.46;55.22
34931;BME280;21134;49.646;8.560;2023-04-20T10:51:46;100180.66;;;13.49;57.83
34931;BME280;21134;49.646;8.560;2023-04-20T10:54:13;100185.13;;;13.41;54.17
34931;BME280;21134;49.646;8.560;2023-04-20T10:56:40;100175.88;;;13.31;54.79
34931;BME280;21134;49.646;8.560;2023-04-20T10:59:08;100170.69;;;13.32;54.24
34931;BME280;21134;49.646;8.560;2023-04-20T11:01:35;100167.28;;;13.32;53.55
34931;BME280;21134;49.646;8.560;2023-04-20T11:04:02;100164.56;;;13.41;52.94
34931;BME280;21134;49.646;8.560;2023-04-20T11:06:30;100163.34;;;13.59;51.84
34931;BME280;21134;49.646;8.560;2023-04-20T11:08:57;100156.31;;;13.68;51.71
34931;BME280;21134;49.646;8.560;2023-04-20T11:11:24;100162.38;;;14.09;51.77
34931;BME280;21134;49.646;8.560;2023-04-20T11:13:52;100151.53;;;14.74;52.09
34931;BME280;21134;49.646;8.560;2023-04-20T11:16:29;100148.94;;;15.10;51.14
34931;BME280;21134;49.646;8.560;2023-04-20T11:18:56;100153.44;;;15.02;47.60
34931;BME280;21134;49.646;8.560;2023-04-20T11:21:35;100152.59;;;15.01;47.08
34931;BME280;21134;49.646;8.560;2023-04-20T11:24:03;100137.78;;;14.75;46.45
34931;BME280;21134;49.646;8.560;2023-04-20T11:26:34;100142.88;;;14.39;46.96
34931;BME280;21134;49.646;8.560;2023-04-20T11:29:01;100145.63;;;14.30;48.91
34931;BME280;21134;49.646;8.560;2023-04-20T11:31:28;100136.25;;;14.26;47.05
34931;BME280;21134;49.646;8.560;2023-04-20T11:33:54;100142.25;;;14.28;46.99
34931;BME280;21134;49.646;8.560;2023-04-20T11:36:22;100144.44;;;14.45;47.29
34931;BME280;21134;49.646;8.560;2023-04-20T11:38:51;100134.94;;;14.86;44.18
34931;BME280;21134;49.646;8.560;2023-04-20T11:41:18;100134.28;;;15.12;44.91
34931;BME280;21134;49.646;8.560;2023-04-20T11:43:45;100129.03;;;15.17;45.41
34931;BME280;21134;49.646;8.560;2023-04-20T11:46:14;100125.22;;;14.97;44.42
34931;BME280;21134;49.646;8.560;2023-04-20T11:48:41;100124.97;;;14.72;43.93
34931;BME280;21134;49.646;8.560;2023-04-20T11:51:07;100133.69;;;14.26;44.38
34931;BME280;21134;49.646;8.560;2023-04-20T11:53:34;100127.25;;;14.07;46.18
34931;BME280;21134;49.646;8.560;2023-04-20T11:56:02;100128.19;;;14.04;45.11
34931;BME280;21134;49.646;8.560;2023-04-20T11:58:29;100133.03;;;14.16;46.04
34931;BME280;21134;49.646;8.560;2023-04-20T12:00:55;100122.47;;;14.30;45.43
34931;BME280;21134;49.646;8.560;2023-04-20T12:03:22;100126.56;;;14.39;45.02
34931;BME280;21134;49.646;8.560;2023-04-20T12:05:48;100123.59;;;14.57;45.93
34931;BME280;21134;49.646;8.560;2023-04-20T12:08:15;100118.47;;;14.92;44.76
34931;BME280;21134;49.646;8.560;2023-04-20T12:10:42;100116.13;;;15.17;43.48
34931;BME280;21134;49.646;8.560;2023-04-20T12:13:12;100116.63;;;15.62;43.73
34931;BME280;21134;49.646;8.560;2023-04-20T12:15:40;100111.38;;;15.67;43.23
34931;BME280;21134;49.646;8.560;2023-04-20T12:18:06;100113.69;;;15.45;43.85
34931;BME280;21134;49.646;8.560;2023-04-20T12:20:33;100116.97;;;15.17;42.45
34931;BME280;21134;49.646;8.560;2023-04-20T12:22:59;100114.53;;;14.77;45.62
34931;BME280;21134;49.646;8.560;2023-04-20T12:25:27;100114.03;;;14.62;44.68
34931;BME280;21134;49.646;8.560;2023-04-20T12:27:53;100111.72;;;14.50;46.31
34931;BME280;21134;49.646;8.560;2023-04-20T12:30:21;100119.34;;;14.56;44.78
34931;BME280;21134;49.646;8.560;2023-04-20T12:32:48;100120.00;;;14.26;44.38
34931;BME280;21134;49.646;8.560;2023-04-20T12:35:14;100131.69;;;14.00;47.04
34931;BME280;21134;49.646;8.560;2023-04-20T12:37:41;100128.13;;;14.06;46.61
34931;BME280;21134;49.646;8.560;2023-04-20T12:40:08;100127.25;;;14.07;46.41
34931;BME280;21134;49.646;8.560;2023-04-20T12:42:34;100132.81;;;13.87;45.69
34931;BME280;21134;49.646;8.560;2023-04-20T12:45:01;100128.16;;;13.62;47.42
34931;BME280;21134;49.646;8.560;2023-04-20T12:47:29;100123.16;;;13.56;48.80
34931;BME280;21134;49.646;8.560;2023-04-20T12:49:55;100123.81;;;13.66;47.47
34931;BME280;21134;49.646;8.560;2023-04-20T12:52:22;100130.59;;;13.68;47.38
34931;BME280;21134;49.646;8.560;2023-04-20T12:54:48;100127.41;;;13.57;47.55
34931;BME280;21134;49.646;8.560;2023-04-20T12:57:15;100130.59;;;13.68;46.84